Time;durP1;ratioP1;P1;durP2;ratioP2;P2;SDS_P1;SDS_P2;PMS_P1;PMS_P2;Temp;Humidity;BMP_temperature;BMP_pressure;BME280_temperature;BME280_humidity;BME280_pressure;Samples;Min_cycle;Max_cycle;Signal;HPM_P1;HPM_P2
2021/10/31 00:01:18;;;;;;;63.90;25.50;;;;;;;7.28;63.74;100823.77;27262;1215;3026116;-72
2021/10/31 00:03:47;;;;;;;52.80;23.60;;;;;;;7.26;63.85;100818.41;27243;1215;3048184;-68
2021/10/31 00:06:16;;;;;;;49.50;23.00;;;;;;;7.24;63.81;100819.31;27243;1216;3026564;-69
2021/10/31 00:08:46;;;;;;;52.80;22.10;;;;;;;7.25;63.52;100820.18;27216;1215;3070466;-69
2021/10/31 00:11:19;;;;;;;52.10;22.40;;;;;;;7.24;63.53;100822.13;27248;1215;3026185;-70
2021/10/31 00:13:48;;;;;;;49.10;20.40;;;;;;;7.19;63.49;100820.66;27259;1209;3026887;-66
2021/10/31 00:16:19;;;;;;;40.00;19.40;;;;;;;7.20;63.32;100822.40;27272;1216;3027174;-72
2021/10/31 00:18:48;;;;;;;44.20;19.10;;;;;;;7.15;63.43;100821.99;27262;1216;3026543;-68
2021/10/31 00:21:17;;;;;;;49.10;20.40;;;;;;;7.15;63.35;100823.03;27255;1215;3027692;-68
2021/10/31 00:23:46;;;;;;;48.60;19.30;;;;;;;7.15;63.33;100820.08;27209;1215;3054680;-69
2021/10/31 00:26:15;;;;;;;52.00;19.90;;;;;;;7.16;63.35;100817.77;27266;1215;3025819;-71
2021/10/31 00:28:44;;;;;;;41.80;18.90;;;;;;;7.16;63.40;100818.48;27235;1216;3053678;-68
2021/10/31 00:31:13;;;;;;;42.10;20.70;;;;;;;7.12;63.60;100818.39;27268;1216;3025901;-69
2021/10/31 00:33:43;;;;;;;41.70;20.90;;;;;;;7.12;63.58;100815.42;27190;1216;3050937;-68
2021/10/31 00:36:12;;;;;;;44.20;22.90;;;;;;;7.08;63.59;100813.77;27219;1215;3029324;-68
2021/10/31 00:38:40;;;;;;;47.70;23.80;;;;;;;7.09;63.49;100813.41;27273;1216;3069755;-71
2021/10/31 00:41:09;;;;;;;55.40;24.80;;;;;;;7.08;63.64;100810.65;27265;1216;3026344;-74
2021/10/31 00:43:38;;;;;;;45.10;24.30;;;;;;;7.05;63.82;100810.73;27279;1216;3051180;-72
2021/10/31 00:46:07;;;;;;;53.30;25.20;;;;;;;7.03;63.78;100807.81;27228;1216;3026114;-72
2021/10/31 00:48:36;;;;;;;51.70;27.80;;;;;;;7.01;64.00;100807.52;27265;1215;3052242;-71
2021/10/31 00:51:05;;;;;;;52.30;28.50;;;;;;;7.00;63.88;100805.61;27259;1215;3026570;-67
2021/10/31 00:53:37;;;;;;;49.30;26.80;;;;;;;6.99;64.19;100809.66;27227;1214;3049013;-68
2021/10/31 00:56:06;;;;;;;59.50;28.80;;;;;;;6.97;63.94;100808.14;27258;1215;3026421;-65
2021/10/31 00:58:37;;;;;;;53.90;29.50;;;;;;;6.97;63.77;100807.96;27209;1218;3026380;-72
2021/10/31 01:01:06;;;;;;;49.70;29.00;;;;;;;6.94;63.99;100808.20;27208;1216;3026419;-73
2021/10/31 01:03:35;;;;;;;55.90;30.70;;;;;;;6.94;63.80;100809.24;27254;1215;3027906;-69
2021/10/31 01:06:35;;;;;;;53.90;27.70;;;;;;;6.95;63.65;100804.88;27236;1216;3052257;-70
2021/10/31 01:09:19;;;;;;;57.70;28.50;;;;;;;6.90;64.11;100807.09;27265;1216;3070270;-71
2021/10/31 01:12:16;;;;;;;52.00;27.90;;;;;;;6.91;63.97;100804.80;27246;1216;3048856;-74
2021/10/31 01:15:19;;;;;;;49.70;28.00;;;;;;;6.85;64.60;100799.89;27234;1216;3052377;-71
2021/10/31 01:17:57;;;;;;;56.40;26.90;;;;;;;6.73;65.20;100794.41;27256;1215;3051601;-71
2021/10/31 01:20:33;;;;;;;49.80;25.00;;;;;;;6.73;65.17;100796.85;27225;1215;3058462;-70
2021/10/31 01:23:25;;;;;;;50.20;23.70;;;;;;;6.71;65.26;100794.14;27222;1209;3052009;-72
2021/10/31 01:26:16;;;;;;;55.20;25.20;;;;;;;6.64;65.76;100796.02;27286;1216;3052603;-71
2021/10/31 01:29:05;;;;;;;51.00;23.80;;;;;;;6.62;65.92;100790.34;27236;1215;3053570;-73
2021/10/31 01:31:38;;;;;;;54.40;25.80;;;;;;;6.61;65.74;100791.58;27231;1215;3070585;-72
2021/10/31 01:34:37;;;;;;;50.50;24.40;;;;;;;6.55;66.23;100791.52;27234;1214;3025975;-68
2021/10/31 01:37:31;;;;;;;46.40;25.50;;;;;;;6.53;66.05;100791.93;27243;1219;3051548;-67
2021/10/31 01:40:22;;;;;;;49.60;24.60;;;;;;;6.48;66.09;100792.73;27199;1219;3055490;-65
2021/10/31 01:43:45;;;;;;;59.10;25.40;;;;;;;6.46;66.25;100790.86;27178;1218;3056114;-67
2021/10/31 01:46:16;;;;;;;54.00;23.50;;;;;;;6.46;65.87;100790.17;27094;1222;3049642;-70
2021/10/31 01:49:27;;;;;;;50.20;24.80;;;;;;;6.43;66.15;100788.14;27174;1222;3027305;-72
2021/10/31 01:51:59;;;;;;;43.40;23.10;;;;;;;6.41;66.09;100787.16;27060;1225;3052357;-69
2021/10/31 01:54:41;;;;;;;51.20;23.40;;;;;;;6.39;65.89;100788.58;27131;1225;3025931;-67
2021/10/31 01:57:11;;;;;;;50.50;23.60;;;;;;;6.39;65.80;100788.92;27000;1226;3049112;-66
2021/10/31 01:59:42;;;;;;;58.90;24.60;;;;;;;6.34;65.90;100785.73;27036;1225;3026453;-68
2021/10/31 02:02:11;;;;;;;52.30;24.50;;;;;;;6.29;66.03;100785.83;27041;1225;3026626;-66
2021/10/31 02:04:40;;;;;;;48.70;23.30;;;;;;;6.27;66.26;100788.67;27008;1225;3026389;-67
2021/10/31 02:07:09;;;;;;;50.60;22.80;;;;;;;6.25;66.25;100785.41;27093;1225;3054857;-70
2021/10/31 02:09:40;;;;;;;46.80;22.30;;;;;;;6.22;66.33;100786.34;27076;1225;3025969;-68
2021/10/31 02:12:10;;;;;;;58.60;21.70;;;;;;;6.20;66.51;100785.85;26974;1226;3048581;-72
2021/10/31 02:14:39;;;;;;;46.90;21.80;;;;;;;6.19;66.55;100783.09;27123;1225;3026070;-70
2021/10/31 02:17:08;;;;;;;45.50;21.80;;;;;;;6.16;66.86;100783.68;27156;1216;3026216;-70
2021/10/31 02:19:39;;;;;;;52.00;23.00;;;;;;;6.14;66.82;100778.50;27109;1225;3050142;-71
2021/10/31 02:22:09;;;;;;;53.00;22.40;;;;;;;6.13;67.14;100784.27;27149;1219;3026664;-70
2021/10/31 02:24:38;;;;;;;53.60;21.90;;;;;;;6.09;67.36;100785.40;27204;1222;3026041;-72
2021/10/31 02:27:15;;;;;;;34.90;18.00;;;;;;;6.06;67.32;100782.68;27149;1221;3028094;-70
2021/10/31 02:29:55;;;;;;;46.70;18.50;;;;;;;6.67;66.17;100782.38;27235;1216;3048931;-69
2021/10/31 02:32:26;;;;;;;41.10;19.10;;;;;;;7.29;64.43;100781.20;27227;1215;3052771;-67
2021/10/31 02:34:56;;;;;;;42.10;19.60;;;;;;;7.36;63.60;100772.99;27299;1215;3025975;-68
2021/10/31 02:37:25;;;;;;;40.70;20.00;;;;;;;7.21;63.53;100773.89;27237;1214;3026201;-69
2021/10/31 02:39:55;;;;;;;39.60;20.10;;;;;;;7.07;63.90;100769.56;27250;1215;3026315;-73
2021/10/31 02:42:24;;;;;;;46.80;20.10;;;;;;;6.86;63.98;100767.13;27230;1215;3028482;-70
2021/10/31 02:44:53;;;;;;;44.70;20.70;;;;;;;6.75;64.45;100770.17;27261;1214;3025835;-69
2021/10/31 02:47:26;;;;;;;40.20;19.50;;;;;;;6.64;64.41;100772.34;27243;1214;3050522;-67
2021/10/31 02:49:56;;;;;;;51.30;21.70;;;;;;;6.55;64.57;100766.64;27268;1215;3054215;-73
2021/10/31 02:52:40;;;;;;;45.10;19.70;;;;;;;6.40;65.20;100766.10;27228;1216;3026053;-69
2021/10/31 02:55:22;;;;;;;47.80;20.70;;;;;;;6.27;65.71;100759.95;27213;1216;3049171;-69
2021/10/31 02:58:02;;;;;;;49.00;22.70;;;;;;;6.19;65.62;100755.60;27223;1215;3054922;-69
2021/10/31 03:00:31;;;;;;;48.10;20.50;;;;;;;6.16;65.62;100751.50;27249;1215;3053771;-70
2021/10/31 03:03:00;;;;;;;43.30;20.50;;;;;;;6.10;65.84;100760.15;27209;1219;3028341;-74
2021/10/31 03:05:29;;;;;;;44.80;20.00;;;;;;;6.06;65.94;100759.70;27229;1215;3051307;-70
2021/10/31 03:07:58;;;;;;;48.80;21.20;;;;;;;6.01;66.20;100756.88;27251;1218;3026370;-68
2021/10/31 03:10:27;;;;;;;44.80;22.20;;;;;;;5.98;66.15;100755.00;27236;1215;3027375;-71
2021/10/31 03:12:57;;;;;;;46.70;22.40;;;;;;;5.95;66.30;100752.98;27213;1214;3051719;-65
2021/10/31 03:15:26;;;;;;;47.80;22.60;;;;;;;5.92;66.40;100750.41;27254;1215;3026464;-72
2021/10/31 03:17:55;;;;;;;49.20;23.40;;;;;;;5.86;66.59;100750.52;27243;1216;3047127;-74
2021/10/31 03:20:25;;;;;;;45.50;22.30;;;;;;;5.82;66.76;100744.86;27278;1215;3026363;-75
2021/10/31 03:22:54;;;;;;;53.90;25.40;;;;;;;5.79;66.72;100748.42;27212;1214;3026178;-69
2021/10/31 03:25:22;;;;;;;52.70;24.20;;;;;;;5.73;66.93;100744.35;27237;1214;3048404;-72
2021/10/31 03:27:52;;;;;;;52.50;24.80;;;;;;;5.76;66.74;100741.53;27278;1214;3027665;-71
2021/10/31 03:30:21;;;;;;;53.40;24.50;;;;;;;5.75;67.03;100743.13;27228;1214;3068935;-73
2021/10/31 03:32:50;;;;;;;56.10;24.00;;;;;;;5.72;67.22;100744.22;27247;1214;3028566;-68
2021/10/31 03:35:19;;;;;;;51.30;24.70;;;;;;;5.68;67.75;100741.34;27238;1215;3050433;-71
2021/10/31 03:37:48;;;;;;;53.90;21.00;;;;;;;5.73;67.51;100736.02;27192;1214;3055668;-66
2021/10/31 03:40:17;;;;;;;47.40;22.90;;;;;;;6.34;66.73;100736.11;27219;1214;3052172;-70
2021/10/31 03:42:46;;;;;;;48.30;20.30;;;;;;;6.98;65.24;100733.39;27259;1214;3027987;-72
2021/10/31 03:45:15;;;;;;;58.10;24.20;;;;;;;7.18;64.56;100730.08;27279;1214;3051334;-71
2021/10/31 03:47:48;;;;;;;47.40;21.80;;;;;;;7.09;64.23;100728.93;27247;1214;3026581;-72
2021/10/31 03:50:21;;;;;;;51.80;22.90;;;;;;;6.86;64.56;100723.73;27249;1214;3026036;-68
2021/10/31 03:52:50;;;;;;;51.00;22.80;;;;;;;6.67;64.91;100728.56;27254;1215;3026012;-70
2021/10/31 03:55:19;;;;;;;51.10;22.90;;;;;;;6.51;65.22;100726.33;27224;1215;3029056;-68
2021/10/31 03:57:48;;;;;;;48.10;22.90;;;;;;;6.37;65.74;100719.19;27258;1214;3026215;-72
2021/10/31 04:00:17;;;;;;;46.20;22.10;;;;;;;6.26;65.89;100714.21;27214;1214;3069917;-69
2021/10/31 04:02:46;;;;;;;50.30;23.70;;;;;;;6.21;65.97;100715.20;27226;1215;3028746;-70
2021/10/31 04:05:15;;;;;;;49.20;23.20;;;;;;;6.09;66.24;100706.77;27295;1215;3050076;-71
2021/10/31 04:07:47;;;;;;;49.40;24.50;;;;;;;5.98;66.57;100704.39;27262;1215;3026384;-75
2021/10/31 04:10:16;;;;;;;58.50;25.50;;;;;;;5.91;66.69;100699.66;27250;1214;3026100;-69
2021/10/31 04:13:05;;;;;;;50.60;24.40;;;;;;;5.81;67.06;100693.25;27226;1216;3052302;-74
2021/10/31 04:15:35;;;;;;;54.30;24.80;;;;;;;5.73;67.24;100695.86;27201;1215;3026040;-70
2021/10/31 04:18:04;;;;;;;51.10;24.70;;;;;;;5.65;67.51;100697.76;27231;1214;3028104;-72
2021/10/31 04:20:33;;;;;;;54.40;26.40;;;;;;;5.55;67.83;100704.22;27278;1217;3050741;-69
2021/10/31 04:23:02;;;;;;;52.40;23.40;;;;;;;5.47;68.23;100700.56;27286;1216;3025947;-67
2021/10/31 04:25:32;;;;;;;50.60;24.00;;;;;;;5.44;68.11;100699.23;27231;1215;3051121;-70
2021/10/31 04:28:01;;;;;;;54.90;24.10;;;;;;;5.40;68.27;100697.58;27229;1215;3026151;-70
2021/10/31 04:30:30;;;;;;;56.00;26.10;;;;;;;5.33;68.17;100699.77;27246;1214;3070734;-68
2021/10/31 04:32:59;;;;;;;58.00;24.70;;;;;;;5.32;68.08;100699.45;27227;1214;3028104;-73
2021/10/31 04:35:28;;;;;;;55.40;25.90;;;;;;;5.28;68.66;100697.96;27238;1214;3050117;-71
2021/10/31 04:38:05;;;;;;;55.60;26.70;;;;;;;5.33;68.24;100698.58;27276;1215;3026094;-70
2021/10/31 04:40:36;;;;;;;48.80;24.30;;;;;;;5.38;68.29;100697.25;27282;1214;3052372;-69
2021/10/31 04:43:10;;;;;;;56.40;25.40;;;;;;;5.41;68.02;100694.61;27254;1214;3026042;-67
2021/10/31 04:45:41;;;;;;;65.90;26.00;;;;;;;5.39;68.25;100696.19;27207;1214;3067518;-71
2021/10/31 04:48:11;;;;;;;59.40;25.10;;;;;;;5.39;68.19;100695.34;27227;1214;3026858;-75
2021/10/31 04:50:40;;;;;;;51.10;22.10;;;;;;;5.42;68.06;100691.45;27221;1215;3026440;-67
2021/10/31 04:53:09;;;;;;;54.70;21.40;;;;;;;5.99;66.90;100694.11;27216;1215;3025792;-71
2021/10/31 04:55:39;;;;;;;57.70;22.10;;;;;;;6.65;64.89;100695.20;27247;1215;3051388;-73
2021/10/31 04:58:09;;;;;;;56.20;22.80;;;;;;;6.76;64.25;100692.49;27265;1214;3029007;-67
2021/10/31 05:00:38;;;;;;;48.00;21.30;;;;;;;6.71;64.31;100692.77;27189;1214;3026672;-67
2021/10/31 05:03:07;;;;;;;45.10;21.60;;;;;;;6.47;64.98;100687.96;27229;1214;3027004;-71
2021/10/31 05:05:36;;;;;;;43.00;21.20;;;;;;;6.37;65.32;100690.48;27268;1214;3050966;-72
2021/10/31 05:08:06;;;;;;;47.60;20.70;;;;;;;6.21;65.83;100692.23;27276;1214;3026862;-68
2021/10/31 05:10:35;;;;;;;43.20;21.40;;;;;;;6.06;66.11;100690.48;27251;1214;3047702;-70
2021/10/31 05:13:03;;;;;;;46.00;21.10;;;;;;;5.96;66.46;100692.09;27222;1207;3025781;-74
2021/10/31 05:15:33;;;;;;;54.70;23.00;;;;;;;5.89;66.85;100693.24;27237;1208;3069716;-69
2021/10/31 05:18:19;;;;;;;47.60;22.00;;;;;;;5.82;67.07;100693.92;27216;1214;3051034;-72
2021/10/31 05:20:48;;;;;;;46.70;21.60;;;;;;;5.77;67.18;100693.16;27247;1214;3026437;-70
2021/10/31 05:23:17;;;;;;;54.50;23.20;;;;;;;5.73;67.22;100703.34;27249;1214;3068102;-71
2021/10/31 05:25:46;;;;;;;52.80;21.90;;;;;;;5.63;67.57;100703.02;27233;1208;3025632;-70
2021/10/31 05:28:15;;;;;;;51.90;24.60;;;;;;;5.62;67.52;100712.08;27256;1214;3050106;-71
2021/10/31 05:30:44;;;;;;;55.00;25.80;;;;;;;5.62;67.49;100709.46;27211;1215;3025690;-75
2021/10/31 05:33:13;;;;;;;56.00;26.70;;;;;;;5.61;67.30;100711.58;27222;1215;3026024;-69
2021/10/31 05:35:42;;;;;;;57.90;25.40;;;;;;;5.60;67.06;100713.34;27243;1214;3050741;-72
2021/10/31 05:38:13;;;;;;;54.90;27.00;;;;;;;5.63;67.07;100714.30;27215;1214;3026530;-71
2021/10/31 05:40:42;;;;;;;55.60;28.40;;;;;;;5.66;66.76;100715.30;27254;1214;3051802;-72
2021/10/31 05:43:11;;;;;;;54.10;28.00;;;;;;;5.68;66.62;100719.45;27263;1214;3025761;-72
2021/10/31 05:45:40;;;;;;;53.80;27.60;;;;;;;5.56;67.24;100718.10;27262;1208;3026210;-70
2021/10/31 05:48:10;;;;;;;58.20;28.00;;;;;;;5.56;67.11;100718.45;27221;1214;3054242;-71
2021/10/31 05:50:40;;;;;;;60.50;28.80;;;;;;;5.54;67.23;100716.05;27282;1214;3027377;-71
2021/10/31 05:53:09;;;;;;;57.30;27.90;;;;;;;5.59;67.20;100720.66;27270;1214;3025690;-68
2021/10/31 05:55:40;;;;;;;56.80;27.90;;;;;;;5.61;67.25;100721.66;27280;1215;3026975;-73
2021/10/31 05:58:09;;;;;;;55.60;27.00;;;;;;;5.66;67.06;100722.61;27276;1208;3026274;-71
2021/10/31 06:00:38;;;;;;;57.50;26.60;;;;;;;5.71;67.16;100722.67;27292;1215;3070162;-73
2021/10/31 06:03:07;;;;;;;51.90;25.40;;;;;;;5.77;67.02;100722.89;27256;1214;3027435;-74
2021/10/31 06:05:36;;;;;;;56.40;27.10;;;;;;;5.85;66.67;100722.37;27264;1214;3053120;-74
2021/10/31 06:08:13;;;;;;;54.60;28.10;;;;;;;5.91;66.52;100719.14;27306;1214;3028147;-72
2021/10/31 06:10:43;;;;;;;52.10;25.20;;;;;;;5.97;66.32;100718.85;27249;1214;3048925;-71
2021/10/31 06:13:12;;;;;;;49.70;25.00;;;;;;;6.01;66.31;100718.25;27242;1208;3026276;-72
2021/10/31 06:16:00;;;;;;;50.80;23.10;;;;;;;6.06;66.03;100719.70;27268;1215;3054490;-70
2021/10/31 06:18:40;;;;;;;50.80;23.30;;;;;;;6.11;66.14;100719.61;27291;1216;3058735;-72
2021/10/31 06:21:09;;;;;;;45.90;21.90;;;;;;;6.21;65.90;100714.17;27230;1214;3027416;-76
2021/10/31 06:23:38;;;;;;;43.30;20.30;;;;;;;6.33;65.58;100711.45;27254;1215;3026540;-72
2021/10/31 06:26:07;;;;;;;46.30;22.10;;;;;;;6.43;65.46;100713.98;27248;1214;3026757;-69
2021/10/31 06:28:36;;;;;;;40.40;21.40;;;;;;;6.50;65.54;100712.61;27246;1214;3048909;-74
2021/10/31 06:31:05;;;;;;;40.80;20.80;;;;;;;6.61;65.19;100710.44;27210;1214;3026404;-71
2021/10/31 06:33:34;;;;;;;42.70;19.50;;;;;;;6.70;65.19;100704.98;27225;1214;3057817;-70
2021/10/31 06:36:03;;;;;;;41.80;20.60;;;;;;;6.77;65.07;100704.48;27214;1214;3029402;-70
2021/10/31 06:38:34;;;;;;;40.40;20.60;;;;;;;6.85;64.78;100707.05;27240;1214;3053149;-72
2021/10/31 06:41:07;;;;;;;43.20;18.80;;;;;;;6.95;64.57;100701.24;27228;1214;3027236;-70
2021/10/31 06:43:36;;;;;;;41.70;19.00;;;;;;;7.03;64.54;100696.84;27235;1214;3026463;-72
2021/10/31 06:46:06;;;;;;;38.40;19.00;;;;;;;7.11;64.11;100693.83;27192;1214;3025977;-74
2021/10/31 06:48:38;;;;;;;39.10;19.30;;;;;;;7.22;63.93;100691.28;27228;1214;3027591;-75
2021/10/31 06:51:06;;;;;;;41.30;19.80;;;;;;;7.27;63.72;100692.38;27214;1214;3026065;-73
2021/10/31 06:53:36;;;;;;;38.60;18.70;;;;;;;7.38;63.47;100689.10;27260;1214;3056056;-70
2021/10/31 06:56:05;;;;;;;36.80;18.60;;;;;;;7.47;63.07;100690.23;27269;1214;3026560;-70
2021/10/31 06:58:35;;;;;;;31.40;17.10;;;;;;;7.61;62.74;100693.34;27225;1214;3048556;-70
2021/10/31 07:01:04;;;;;;;43.50;19.40;;;;;;;7.75;62.43;100690.48;27218;1214;3028216;-69
2021/10/31 07:03:34;;;;;;;33.10;18.30;;;;;;;7.83;62.10;100693.03;27231;1214;3028333;-72
2021/10/31 07:06:05;;;;;;;30.10;17.20;;;;;;;7.89;61.95;100690.09;27256;1214;3026391;-72
2021/10/31 07:08:35;;;;;;;35.70;18.60;;;;;;;7.96;61.61;100691.98;27229;1214;3025950;-69
2021/10/31 07:11:04;;;;;;;35.60;18.10;;;;;;;8.05;61.49;100692.56;27239;1214;3026361;-73
2021/10/31 07:13:33;;;;;;;36.30;19.00;;;;;;;8.16;61.18;100693.81;27189;1214;3070361;-71
2021/10/31 07:16:03;;;;;;;34.30;18.30;;;;;;;8.28;61.00;100691.50;27213;1214;3025902;-74
2021/10/31 07:18:32;;;;;;;39.20;19.90;;;;;;;8.40;60.64;100691.84;27257;1214;3028060;-68
2021/10/31 07:21:01;;;;;;;35.10;16.40;;;;;;;8.54;60.40;100692.08;27272;1208;3026037;-72
2021/10/31 07:23:30;;;;;;;33.20;18.20;;;;;;;8.60;60.00;100691.58;27281;1208;3025892;-71
2021/10/31 07:26:00;;;;;;;31.00;16.70;;;;;;;8.67;60.03;100686.97;27296;1216;3051246;-71
2021/10/31 07:28:29;;;;;;;30.10;16.90;;;;;;;8.76;59.69;100685.60;27213;1216;3026864;-74
2021/10/31 07:30:59;;;;;;;30.20;15.60;;;;;;;8.83;59.42;100687.46;27249;1216;3026514;-75
2021/10/31 07:33:28;;;;;;;30.70;14.60;;;;;;;8.94;59.12;100684.14;27252;1216;3051623;-72
2021/10/31 07:35:58;;;;;;;22.90;13.20;;;;;;;9.05;58.74;100686.55;27238;1216;3026313;-70
2021/10/31 07:38:27;;;;;;;27.30;14.10;;;;;;;9.18;58.33;100680.85;27275;1216;3028032;-69
2021/10/31 07:41:01;;;;;;;29.70;14.80;;;;;;;9.30;58.24;100680.60;27235;1216;3054607;-73
2021/10/31 07:43:31;;;;;;;25.60;13.80;;;;;;;9.42;57.96;100675.83;27246;1216;3026097;-69
2021/10/31 07:46:00;;;;;;;27.30;13.90;;;;;;;9.55;57.58;100679.90;27262;1216;3048340;-74
2021/10/31 07:48:29;;;;;;;26.10;13.20;;;;;;;9.67;57.50;100678.55;27273;1216;3026089;-73
2021/10/31 07:50:58;;;;;;;25.50;13.70;;;;;;;9.79;57.16;100678.64;27279;1210;3028358;-67
2021/10/31 07:53:27;;;;;;;28.30;13.80;;;;;;;9.93;56.65;100676.17;27250;1216;3048697;-70
2021/10/31 07:55:57;;;;;;;24.60;13.60;;;;;;;10.03;56.23;100675.97;27237;1215;3026494;-70
2021/10/31 07:58:28;;;;;;;27.50;13.60;;;;;;;10.05;56.12;100679.21;27221;1216;3025810;-68
2021/10/31 08:00:57;;;;;;;24.60;10.70;;;;;;;10.09;55.69;100678.34;27248;1216;3047445;-68
2021/10/31 08:03:26;;;;;;;20.60;11.50;;;;;;;10.13;55.10;100678.04;27222;1216;3026062;-73
2021/10/31 08:05:56;;;;;;;20.00;9.70;;;;;;;10.12;55.05;100672.64;27240;1216;3070016;-67
2021/10/31 08:08:26;;;;;;;17.70;8.90;;;;;;;10.19;54.70;100672.38;27243;1216;3027314;-71
2021/10/31 08:10:55;;;;;;;20.30;10.30;;;;;;;10.33;54.66;100673.39;27280;1216;3051375;-72
2021/10/31 08:13:25;;;;;;;20.40;9.00;;;;;;;10.37;54.49;100670.45;27257;1216;3027058;-72
2021/10/31 08:15:56;;;;;;;19.20;9.50;;;;;;;10.37;54.22;100671.64;27248;1216;3052893;-65
2021/10/31 08:18:25;;;;;;;23.40;11.20;;;;;;;10.51;54.06;100675.83;27249;1216;3026873;-68
2021/10/31 08:20:54;;;;;;;27.20;11.90;;;;;;;10.62;54.01;100672.77;27258;1216;3026012;-73
2021/10/31 08:23:23;;;;;;;25.30;11.70;;;;;;;10.66;53.31;100670.48;27286;1216;3054851;-70
2021/10/31 08:25:53;;;;;;;29.50;13.10;;;;;;;10.71;53.14;100669.58;27281;1208;3026007;-68
2021/10/31 08:28:22;;;;;;;25.70;11.80;;;;;;;10.84;52.95;100663.06;27244;1215;3049136;-71
2021/10/31 08:30:58;;;;;;;23.60;11.80;;;;;;;10.91;52.86;100657.70;27245;1216;3026456;-68
2021/10/31 08:33:31;;;;;;;25.40;12.90;;;;;;;11.02;52.54;100658.08;27257;1217;3057809;-69
2021/10/31 08:36:01;;;;;;;25.40;12.50;;;;;;;11.08;52.28;100657.98;27209;1216;3026714;-75
2021/10/31 08:38:30;;;;;;;23.60;11.50;;;;;;;11.15;52.02;100649.84;27229;1208;3027287;-75
2021/10/31 08:40:59;;;;;;;23.70;12.50;;;;;;;11.28;51.66;100650.80;27238;1216;3025976;-68
2021/10/31 08:43:28;;;;;;;24.90;13.60;;;;;;;11.33;51.45;100649.58;27268;1216;3029503;-66
2021/10/31 08:45:57;;;;;;;33.40;12.60;;;;;;;11.40;51.36;100644.32;27239;1216;3052263;-70
2021/10/31 08:48:26;;;;;;;25.10;10.30;;;;;;;11.44;51.16;100639.73;27224;1216;3026270;-69
2021/10/31 08:50:55;;;;;;;31.30;14.30;;;;;;;11.46;50.72;100631.05;27233;1216;3025960;-73
2021/10/31 08:53:27;;;;;;;32.10;14.40;;;;;;;11.51;50.92;100631.54;27268;1216;3054969;-77
2021/10/31 08:56:00;;;;;;;26.20;13.20;;;;;;;11.57;50.52;100623.70;27219;1216;3026418;-71
2021/10/31 08:58:29;;;;;;;27.60;13.30;;;;;;;11.61;50.33;100620.52;27242;1216;3027141;-68
2021/10/31 09:00:58;;;;;;;24.30;11.40;;;;;;;11.57;50.50;100615.45;27195;1216;3028080;-69
2021/10/31 09:03:27;;;;;;;20.50;10.50;;;;;;;11.64;50.43;100613.77;27249;1216;3050247;-65
2021/10/31 09:05:56;;;;;;;22.00;11.30;;;;;;;11.71;50.28;100610.95;27240;1216;3026145;-71
2021/10/31 09:08:25;;;;;;;26.00;12.10;;;;;;;11.80;50.14;100611.95;27232;1216;3054348;-70
2021/10/31 09:10:54;;;;;;;23.50;11.20;;;;;;;11.93;50.17;100603.10;27242;1216;3026350;-72
2021/10/31 09:13:23;;;;;;;19.10;9.60;;;;;;;11.95;49.78;100599.13;27233;1216;3028071;-69
2021/10/31 09:16:03;;;;;;;21.90;10.30;;;;;;;12.05;49.54;100594.61;27206;1216;3053849;-72
2021/10/31 09:18:32;;;;;;;21.70;8.70;;;;;;;12.13;49.40;100590.21;27218;1208;3026026;-64
2021/10/31 09:21:02;;;;;;;18.50;8.10;;;;;;;12.21;48.94;100588.05;27183;1216;3026280;-72
2021/10/31 09:23:32;;;;;;;19.80;10.00;;;;;;;12.22;48.88;100590.44;27289;1216;3053428;-68
2021/10/31 09:26:01;;;;;;;26.60;11.60;;;;;;;12.20;48.75;100588.61;27274;1208;3027110;-72
2021/10/31 09:28:30;;;;;;;28.40;12.90;;;;;;;12.24;48.64;100585.80;27237;1216;3028507;-69
2021/10/31 09:31:00;;;;;;;29.90;12.30;;;;;;;12.33;48.35;100584.27;27240;1216;3051559;-70
2021/10/31 09:33:29;;;;;;;17.80;8.80;;;;;;;12.45;47.97;100578.08;27234;1216;3025922;-72
2021/10/31 09:35:59;;;;;;;17.20;8.50;;;;;;;12.53;47.92;100572.07;27225;1216;3026519;-72
2021/10/31 09:38:30;;;;;;;23.30;9.20;;;;;;;12.64;47.95;100569.38;27256;1216;3052003;-67
2021/10/31 09:41:00;;;;;;;17.20;8.60;;;;;;;12.80;47.38;100565.90;27271;1216;3026545;-72
2021/10/31 09:43:32;;;;;;;17.00;9.20;;;;;;;12.95;46.94;100563.72;27192;1216;3025968;-66
2021/10/31 09:46:03;;;;;;;23.40;9.10;;;;;;;13.08;46.75;100557.91;27253;1216;3050612;-70
2021/10/31 09:48:33;;;;;;;19.80;8.20;;;;;;;13.11;46.71;100554.23;27254;1216;3025966;-65
2021/10/31 09:51:02;;;;;;;15.70;7.80;;;;;;;13.20;46.57;100557.80;27243;1216;3026501;-70
2021/10/31 09:53:31;;;;;;;19.60;8.00;;;;;;;13.31;45.97;100553.17;27229;1216;3050870;-65
2021/10/31 09:56:00;;;;;;;18.00;7.70;;;;;;;13.28;46.05;100549.63;27273;1208;3026325;-67
2021/10/31 09:58:38;;;;;;;17.90;8.10;;;;;;;13.32;46.16;100545.20;27257;1216;3067744;-71
2021/10/31 10:01:25;;;;;;;22.30;9.30;;;;;;;13.38;45.80;100540.85;27280;1216;3049070;-71
2021/10/31 10:03:56;;;;;;;25.10;9.60;;;;;;;13.44;45.39;100535.79;27240;1217;3054873;-68
2021/10/31 10:06:25;;;;;;;18.80;8.30;;;;;;;13.58;45.33;100529.67;27278;1216;3026158;-68
2021/10/31 10:09:04;;;;;;;13.90;6.90;;;;;;;13.68;45.43;100522.48;27308;1216;3025975;-71
2021/10/31 10:11:38;;;;;;;17.90;7.20;;;;;;;13.82;44.88;100520.78;27238;1216;3049485;-73
2021/10/31 10:14:13;;;;;;;15.00;6.60;;;;;;;13.87;44.80;100512.63;27216;1216;3051157;-70
2021/10/31 10:16:42;;;;;;;17.60;7.10;;;;;;;13.92;44.85;100510.52;27223;1216;3053291;-66
2021/10/31 10:19:19;;;;;;;15.80;6.80;;;;;;;13.99;44.58;100510.68;27241;1216;3026413;-71
2021/10/31 10:22:09;;;;;;;16.20;7.80;;;;;;;14.02;44.57;100504.50;27262;1217;3052185;-70
2021/10/31 10:24:49;;;;;;;15.90;7.70;;;;;;;14.10;44.01;100499.58;27267;1216;3050481;-70
2021/10/31 10:27:18;;;;;;;16.50;8.20;;;;;;;14.14;43.90;100493.91;27236;1216;3068721;-70
2021/10/31 10:29:47;;;;;;;15.70;8.70;;;;;;;14.24;44.06;100502.67;27219;1216;3026511;-68
2021/10/31 10:32:21;;;;;;;18.00;8.50;;;;;;;14.35;43.62;100494.97;27241;1217;3027424;-67
2021/10/31 10:34:55;;;;;;;17.60;9.30;;;;;;;14.46;43.62;100491.10;27271;1216;3053707;-67
2021/10/31 10:37:26;;;;;;;17.80;8.80;;;;;;;14.50;43.42;100486.85;27230;1216;3055751;-68
2021/10/31 10:39:57;;;;;;;18.90;10.30;;;;;;;14.51;43.36;100481.13;27252;1216;3027467;-70
2021/10/31 10:42:36;;;;;;;20.10;9.40;;;;;;;14.56;43.19;100475.56;27271;1216;3027072;-70
2021/10/31 10:45:07;;;;;;;25.60;10.30;;;;;;;14.60;43.06;100474.98;27210;1217;3051244;-69
2021/10/31 10:48:03;;;;;;;18.30;9.00;;;;;;;14.65;43.25;100469.95;27241;1216;3026034;-71
2021/10/31 10:50:40;;;;;;;17.80;9.80;;;;;;;14.64;43.07;100466.12;27196;1216;3049011;-75
2021/10/31 10:53:19;;;;;;;15.80;8.50;;;;;;;14.69;43.00;100464.58;27220;1216;3055738;-69
2021/10/31 10:55:49;;;;;;;21.90;9.80;;;;;;;14.66;43.02;100458.77;27265;1218;3052501;-72
2021/10/31 10:58:18;;;;;;;18.40;9.50;;;;;;;14.64;42.91;100457.46;27212;1217;3026031;-72
2021/10/31 11:00:49;;;;;;;19.30;9.00;;;;;;;14.71;42.67;100454.05;27211;1216;3028162;-69
2021/10/31 11:03:21;;;;;;;19.30;10.20;;;;;;;14.64;42.83;100452.17;27250;1216;3051411;-70
2021/10/31 11:06:01;;;;;;;20.60;10.00;;;;;;;14.61;42.81;100451.98;27205;1216;3026402;-73
2021/10/31 11:08:29;;;;;;;29.50;12.90;;;;;;;14.70;42.81;100446.17;27234;1216;3048936;-72
2021/10/31 11:11:02;;;;;;;29.20;12.40;;;;;;;14.78;42.63;100448.11;27246;1217;3026641;-68
2021/10/31 11:13:32;;;;;;;;;;;;;;;14.73;42.38;100443.66;27247;1216;3060202;-66
2021/10/31 11:16:03;;;;;;;22.40;9.30;;;;;;;14.64;42.83;100440.91;27287;1216;3026372;-71
2021/10/31 11:18:32;;;;;;;19.10;8.90;;;;;;;14.71;42.62;100431.98;27230;1216;3052516;-70
2021/10/31 11:21:01;;;;;;;21.60;9.90;;;;;;;14.75;42.45;100434.55;27243;1208;3025945;-72
2021/10/31 11:23:30;;;;;;;23.50;8.70;;;;;;;14.88;42.29;100430.23;27268;1216;3050796;-70